createdAt,value
2017-11-07T00:02:10.807Z,20.27
2017-11-07T00:04:39.095Z,17.07
2017-11-07T00:07:06.741Z,16.00
2017-11-07T00:09:34.311Z,17.77
2017-11-07T00:12:01.799Z,18.97
2017-11-07T00:14:36.485Z,17.27
2017-11-07T00:17:17.069Z,16.73
2017-11-07T00:19:45.682Z,16.10
2017-11-07T00:22:16.813Z,19.23
2017-11-07T00:24:44.671Z,18.13
2017-11-07T00:27:15.632Z,17.93
2017-11-07T00:29:44.448Z,16.73
2017-11-07T00:32:13.673Z,17.73
2017-11-07T00:34:42.430Z,16.83
2017-11-07T00:37:11.339Z,18.23
2017-11-07T00:39:39.271Z,16.53
2017-11-07T00:42:06.864Z,16.10
2017-11-07T00:44:34.373Z,18.40
2017-11-07T00:47:01.856Z,18.03
2017-11-07T00:49:30.405Z,19.23
2017-11-07T00:51:58.501Z,19.40
2017-11-07T00:54:26.271Z,17.10
2017-11-07T00:56:53.754Z,18.57
2017-11-07T00:59:21.283Z,19.07
2017-11-07T01:01:48.819Z,19.63
2017-11-07T01:04:16.339Z,17.17
2017-11-07T01:06:43.855Z,19.00
2017-11-07T01:09:11.331Z,18.80
2017-11-07T01:11:39.113Z,17.60
2017-11-07T01:14:06.711Z,20.47
2017-11-07T01:16:34.259Z,18.57
2017-11-07T01:19:01.719Z,20.13
2017-11-07T01:21:29.294Z,18.93
2017-11-07T01:23:56.781Z,18.03
2017-11-07T01:26:24.305Z,17.83
2017-11-07T01:28:52.094Z,16.40
2017-11-07T01:31:24.619Z,17.70
2017-11-07T01:33:52.366Z,20.03
2017-11-07T01:36:20.467Z,16.07
2017-11-07T01:38:47.952Z,20.50
2017-11-07T01:41:15.428Z,17.57
2017-11-07T01:43:43.113Z,19.23
2017-11-07T01:46:10.608Z,17.20
2017-11-07T01:48:38.880Z,19.30
2017-11-07T01:51:06.642Z,17.00
2017-11-07T01:53:34.159Z,16.80
2017-11-07T01:56:01.618Z,16.77
2017-11-07T01:58:29.149Z,16.10
2017-11-07T02:00:56.680Z,18.57
2017-11-07T02:03:24.201Z,17.90
2017-11-07T02:05:51.707Z,18.33
2017-11-07T02:08:19.600Z,18.97
2017-11-07T02:10:47.110Z,16.10
2017-11-07T02:13:14.676Z,17.23
2017-11-07T02:15:42.212Z,16.63
2017-11-07T02:18:09.689Z,16.30
2017-11-07T02:20:37.246Z,15.40
2017-11-07T02:23:04.738Z,14.57
2017-11-07T02:25:32.583Z,16.83
2017-11-07T02:28:00.165Z,18.00
2017-11-07T02:30:27.624Z,17.33
2017-11-07T02:32:55.176Z,16.67
2017-11-07T02:35:25.783Z,17.27
2017-11-07T02:37:53.265Z,17.53
2017-11-07T02:40:20.749Z,16.57
2017-11-07T02:42:48.557Z,16.37
2017-11-07T02:45:16.035Z,16.30
2017-11-07T02:47:43.579Z,16.63
2017-11-07T02:50:11.065Z,16.50
2017-11-07T02:52:38.599Z,16.90
2017-11-07T02:55:06.066Z,16.03
2017-11-07T02:57:33.567Z,15.77
2017-11-07T03:00:01.362Z,16.70
2017-11-07T03:02:28.846Z,16.03
2017-11-07T03:04:56.330Z,15.10
2017-11-07T03:07:23.819Z,16.47
2017-11-07T03:09:51.309Z,15.27
2017-11-07T03:12:18.817Z,15.90
2017-11-07T03:14:46.307Z,14.53
2017-11-07T03:17:13.806Z,13.33
2017-11-07T03:19:41.289Z,15.00
2017-11-07T03:22:08.798Z,13.93
2017-11-07T03:24:36.265Z,12.93
2017-11-07T03:27:03.731Z,14.23
2017-11-07T03:29:31.682Z,12.73
2017-11-07T03:31:59.189Z,13.63
2017-11-07T03:34:26.999Z,13.70
2017-11-07T03:36:54.472Z,13.97
2017-11-07T03:39:21.936Z,14.30
2017-11-07T03:41:49.525Z,13.37
2017-11-07T03:44:17.023Z,13.20
2017-11-07T03:46:44.547Z,11.83
2017-11-07T03:49:12.023Z,13.83
2017-11-07T03:51:39.811Z,13.17
2017-11-07T03:54:07.324Z,13.77
2017-11-07T03:56:34.860Z,13.33
2017-11-07T03:59:02.388Z,13.10
2017-11-07T04:01:29.930Z,14.20
2017-11-07T04:03:57.474Z,13.53
2017-11-07T04:06:24.972Z,13.93
2017-11-07T04:08:52.489Z,13.50
2017-11-07T04:11:19.968Z,13.73
2017-11-07T04:13:47.713Z,14.03
2017-11-07T04:16:15.167Z,13.23
2017-11-07T04:18:42.637Z,13.17
2017-11-07T04:21:10.144Z,12.30
2017-11-07T04:23:37.676Z,11.77
2017-11-07T04:26:05.277Z,13.60
2017-11-07T04:28:32.762Z,13.37
2017-11-07T04:31:00.328Z,13.50
2017-11-07T04:33:27.878Z,13.40
2017-11-07T04:35:55.410Z,13.20
2017-11-07T04:38:22.952Z,13.27
2017-11-07T04:40:50.468Z,13.83
2017-11-07T04:43:17.968Z,12.37
2017-11-07T04:45:45.471Z,13.83
2017-11-07T04:48:13.253Z,14.17
2017-11-07T04:50:40.725Z,15.03
2017-11-07T04:53:08.224Z,14.13
2017-11-07T04:55:35.707Z,15.87
2017-11-07T04:58:03.197Z,14.40
2017-11-07T05:00:30.692Z,13.63
2017-11-07T05:02:58.206Z,13.30
2017-11-07T05:05:25.731Z,15.27
2017-11-07T05:07:53.196Z,15.77
2017-11-07T05:10:20.705Z,13.67
2017-11-07T05:12:48.233Z,14.47
2017-11-07T05:15:15.717Z,13.07
2017-11-07T05:17:43.199Z,15.13
2017-11-07T05:20:10.698Z,13.93
2017-11-07T05:22:38.188Z,14.90
2017-11-07T05:25:05.841Z,14.87
2017-11-07T05:27:33.395Z,13.63
2017-11-07T05:30:00.941Z,14.20
2017-11-07T05:32:28.537Z,16.70
2017-11-07T05:34:56.109Z,13.53
2017-11-07T05:37:23.639Z,15.03
2017-11-07T05:39:51.527Z,14.77
2017-11-07T05:42:20.369Z,14.03
2017-11-07T05:44:47.924Z,14.00
2017-11-07T05:47:15.498Z,14.33
2017-11-07T05:49:43.037Z,15.30
2017-11-07T05:52:10.584Z,14.33
2017-11-07T05:54:38.151Z,15.27
2017-11-07T05:57:05.807Z,14.93
2017-11-07T05:59:33.368Z,15.13
2017-11-07T06:02:00.923Z,14.47
2017-11-07T06:04:28.896Z,16.17
2017-11-07T06:06:56.455Z,15.20
2017-11-07T06:09:24.032Z,14.90
2017-11-07T06:11:52.598Z,14.03
2017-11-07T06:14:20.863Z,15.87
2017-11-07T06:16:48.392Z,14.13
2017-11-07T06:19:16.480Z,15.87
2017-11-07T06:21:44.016Z,15.70
2017-11-07T06:24:12.462Z,16.57
2017-11-07T06:26:40.025Z,15.37
2017-11-07T06:29:07.595Z,16.70
2017-11-07T06:34:47.097Z,16.40
2017-11-07T06:37:14.661Z,15.83
2017-11-07T06:39:42.775Z,16.17
2017-11-07T06:42:20.364Z,16.37
2017-11-07T06:44:47.881Z,17.10
2017-11-07T06:47:15.430Z,16.17
2017-11-07T06:49:42.946Z,17.43
2017-11-07T06:52:10.448Z,17.73
2017-11-07T06:54:38.876Z,16.17
2017-11-07T06:57:06.837Z,16.90
2017-11-07T06:59:34.659Z,17.33
2017-11-07T07:02:02.130Z,16.63
2017-11-07T07:04:29.914Z,18.17
2017-11-07T07:06:57.410Z,18.17
2017-11-07T07:09:25.043Z,16.90
2017-11-07T07:11:52.681Z,17.23
2017-11-07T07:14:20.205Z,17.03
2017-11-07T07:16:47.826Z,16.70
2017-11-07T07:19:15.316Z,17.80
2017-11-07T07:21:43.165Z,17.53
2017-11-07T07:24:10.676Z,17.20
2017-11-07T07:26:38.501Z,17.37
2017-11-07T07:29:06.033Z,16.67
2017-11-07T07:31:33.654Z,16.67
2017-11-07T07:34:01.198Z,16.70
2017-11-07T07:36:28.791Z,18.00
2017-11-07T07:38:56.318Z,20.17
2017-11-07T07:41:23.850Z,19.57
2017-11-07T07:43:51.361Z,17.70
2017-11-07T07:46:18.862Z,18.53
2017-11-07T07:48:46.399Z,17.93
2017-11-07T07:51:13.871Z,18.63
2017-11-07T07:53:41.363Z,18.80
2017-11-07T07:56:08.876Z,18.03
2017-11-07T07:58:36.398Z,21.43
2017-11-07T08:01:03.984Z,18.40
2017-11-07T08:03:31.496Z,19.37
2017-11-07T08:05:59.019Z,18.97
2017-11-07T08:08:26.541Z,18.73
2017-11-07T08:10:54.110Z,20.87
2017-11-07T08:13:21.606Z,19.83
2017-11-07T08:15:49.262Z,19.07
2017-11-07T08:18:16.786Z,21.20
2017-11-07T08:20:44.320Z,21.17
2017-11-07T08:23:11.804Z,20.30
2017-11-07T08:25:39.299Z,20.70
2017-11-07T08:28:06.795Z,21.33
2017-11-07T08:30:34.308Z,21.50
2017-11-07T08:33:01.822Z,20.90
2017-11-07T08:35:29.345Z,20.70
2017-11-07T08:37:56.852Z,20.77
2017-11-07T08:40:24.355Z,22.03
2017-11-07T08:42:51.833Z,21.83
2017-11-07T08:45:19.527Z,19.80
2017-11-07T08:47:47.027Z,19.67
2017-11-07T08:50:14.524Z,19.13
2017-11-07T08:52:42.019Z,19.10
2017-11-07T08:55:09.533Z,18.90
2017-11-07T08:57:37.037Z,19.67
2017-11-07T09:00:04.550Z,20.17
2017-11-07T09:02:32.113Z,19.63
2017-11-07T09:04:59.606Z,20.57
2017-11-07T09:07:27.132Z,20.17
2017-11-07T09:09:54.613Z,21.13
2017-11-07T09:12:22.121Z,20.03
2017-11-07T09:14:49.640Z,21.13
2017-11-07T09:17:17.133Z,22.70
2017-11-07T09:19:44.649Z,23.67
2017-11-07T09:22:12.201Z,22.30
2017-11-07T09:24:40.905Z,22.57
2017-11-07T09:27:10.422Z,22.20
2017-11-07T09:29:37.981Z,22.43
2017-11-07T09:32:05.503Z,22.17
2017-11-07T09:34:33.049Z,23.07
2017-11-07T09:37:00.631Z,22.73
2017-11-07T09:39:28.179Z,22.27
2017-11-07T09:41:55.764Z,22.10
2017-11-07T09:44:23.293Z,22.50
2017-11-07T09:46:51.129Z,21.13
2017-11-07T09:49:18.619Z,22.63
2017-11-07T09:51:48.170Z,23.70
2017-11-07T09:54:15.726Z,22.67
2017-11-07T09:56:43.231Z,21.37
2017-11-07T09:59:10.746Z,23.57
2017-11-07T10:01:38.331Z,22.70
2017-11-07T10:04:10.018Z,23.63
2017-11-07T10:06:37.526Z,21.60
2017-11-07T10:09:06.188Z,23.27
2017-11-07T10:11:33.707Z,22.37
2017-11-07T10:14:01.263Z,23.33
2017-11-07T10:16:29.361Z,23.63
2017-11-07T10:18:56.935Z,23.57
2017-11-07T10:21:24.515Z,23.90
2017-11-07T10:26:44.293Z,23.30
2017-11-07T10:29:11.916Z,24.03
2017-11-07T10:31:39.389Z,22.00
2017-11-07T10:34:06.886Z,22.90
2017-11-07T11:11:20.484Z,17.67
2017-11-07T11:13:47.975Z,18.67
2017-11-07T11:16:15.478Z,19.33
2017-11-07T11:18:43.224Z,19.83
2017-11-07T11:21:10.782Z,19.97
2017-11-07T11:23:38.315Z,20.90
2017-11-07T11:26:05.948Z,20.57
2017-11-07T11:28:33.431Z,20.27
2017-11-07T11:31:00.969Z,22.40
2017-11-07T11:33:28.483Z,21.17
2017-11-07T11:35:55.996Z,21.90
2017-11-07T11:38:24.232Z,20.43
2017-11-07T11:40:51.694Z,23.67
2017-11-07T11:43:19.179Z,21.73
2017-11-07T11:45:46.669Z,22.10
2017-11-07T11:48:14.178Z,23.07
2017-11-07T11:50:41.674Z,22.20
2017-11-07T11:53:09.185Z,23.27
2017-11-07T11:55:36.725Z,24.07
2017-11-07T11:58:04.178Z,23.67
2017-11-07T12:00:31.765Z,23.83
2017-11-07T12:02:59.223Z,24.87
2017-11-07T12:05:26.726Z,22.77
2017-11-07T12:07:54.209Z,24.23
2017-11-07T12:10:21.678Z,24.83
2017-11-07T12:12:49.208Z,24.30
2017-11-07T12:15:16.692Z,24.43
2017-11-07T12:17:44.878Z,23.20
2017-11-07T12:20:13.698Z,24.33
2017-11-07T12:22:41.230Z,23.33
2017-11-07T12:25:08.815Z,24.80
2017-11-07T12:27:36.370Z,24.00
2017-11-07T12:30:03.965Z,27.50
2017-11-07T12:32:42.254Z,27.10
2017-11-07T12:35:10.203Z,26.17
2017-11-07T12:37:38.226Z,24.47
2017-11-07T12:40:05.756Z,26.00
2017-11-07T12:42:38.302Z,23.87
2017-11-07T12:45:05.963Z,24.20
2017-11-07T12:47:33.463Z,24.23
2017-11-07T12:50:12.625Z,24.73
2017-11-07T12:52:40.793Z,24.13
2017-11-07T12:55:09.059Z,24.63
2017-11-07T12:57:38.325Z,24.03
2017-11-07T13:00:05.835Z,24.40
2017-11-07T13:02:33.325Z,25.43
2017-11-07T13:05:00.846Z,26.40
2017-11-07T13:07:28.301Z,25.20
2017-11-07T13:09:55.827Z,24.60
2017-11-07T13:12:23.344Z,25.30
2017-11-07T13:14:50.917Z,23.50
2017-11-07T13:17:18.392Z,25.40
2017-11-07T13:19:45.920Z,25.90
2017-11-07T13:22:27.801Z,26.43
2017-11-07T13:24:55.293Z,23.10
2017-11-07T13:27:22.792Z,24.60
2017-11-07T13:29:50.328Z,23.47
2017-11-07T13:32:22.870Z,25.37
2017-11-07T13:34:50.427Z,23.03
2017-11-07T13:37:17.991Z,23.20
2017-11-07T13:39:49.157Z,24.07
2017-11-07T13:42:16.713Z,25.03
2017-11-07T13:44:44.301Z,23.40
2017-11-07T13:47:11.894Z,26.87
2017-11-07T13:49:39.335Z,24.40
2017-11-07T13:52:26.145Z,25.07
2017-11-07T13:54:54.537Z,24.17
2017-11-07T13:57:22.081Z,23.97
2017-11-07T13:59:51.058Z,23.43
2017-11-07T14:02:32.865Z,26.63
2017-11-07T14:05:00.322Z,25.07
2017-11-07T14:07:27.831Z,29.83
2017-11-07T14:09:55.395Z,26.30
2017-11-07T14:12:23.750Z,26.73
2017-11-07T14:14:51.944Z,25.23
2017-11-07T14:17:33.774Z,24.67
2017-11-07T14:20:01.538Z,26.87
2017-11-07T14:22:29.005Z,27.40
2017-11-07T14:24:58.090Z,25.93
2017-11-07T14:27:27.034Z,27.00
2017-11-07T14:29:54.587Z,28.77
2017-11-07T14:32:29.243Z,29.43
2017-11-07T14:35:05.218Z,27.80
2017-11-07T14:37:35.004Z,27.70
2017-11-07T14:40:08.202Z,30.27
2017-11-07T14:42:36.060Z,27.77
2017-11-07T14:45:03.593Z,27.80
2017-11-07T14:47:31.166Z,28.93
2017-11-07T14:49:58.648Z,29.70
2017-11-07T14:52:26.157Z,26.67
2017-11-07T14:54:55.838Z,27.17
2017-11-07T14:57:23.498Z,27.70
2017-11-07T14:59:51.119Z,25.63
2017-11-07T15:02:18.645Z,26.63
2017-11-07T15:04:47.413Z,26.10
2017-11-07T15:07:15.748Z,25.37
2017-11-07T15:09:43.442Z,27.03
2017-11-07T15:12:10.954Z,27.10
2017-11-07T15:14:38.530Z,30.27
2017-11-07T15:17:06.055Z,28.77
2017-11-07T15:19:33.732Z,28.23
2017-11-07T15:22:01.326Z,27.67
2017-11-07T15:24:28.900Z,27.23
2017-11-07T15:26:56.368Z,26.47
2017-11-07T15:29:23.861Z,26.63
2017-11-07T15:32:10.629Z,25.90
2017-11-07T15:34:38.221Z,26.07
2017-11-07T15:37:05.695Z,26.30
2017-11-07T15:39:33.324Z,25.83
2017-11-07T15:42:00.824Z,25.27
2017-11-07T15:44:28.393Z,25.73
2017-11-07T15:46:55.977Z,25.50
2017-11-07T15:49:24.348Z,24.67
2017-11-07T15:51:51.934Z,24.23
2017-11-07T15:54:19.436Z,25.30
2017-11-07T15:56:46.998Z,24.80
2017-11-07T15:59:14.554Z,25.57
2017-11-07T16:01:42.906Z,23.53
2017-11-07T16:04:10.450Z,23.03
2017-11-07T16:06:38.001Z,24.30
2017-11-07T16:09:05.526Z,23.23
2017-11-07T16:11:33.182Z,22.47
2017-11-07T16:14:00.684Z,23.07
2017-11-07T16:16:28.264Z,24.40
2017-11-07T16:18:55.808Z,23.93
2017-11-07T16:21:23.406Z,23.27
2017-11-07T16:23:50.984Z,23.50
2017-11-07T16:26:18.523Z,22.87
2017-11-07T16:28:46.097Z,23.00
2017-11-07T16:31:18.855Z,23.43
2017-11-07T16:33:46.357Z,23.83
2017-11-07T16:36:13.913Z,21.60
2017-11-07T16:38:41.455Z,23.93
2017-11-07T16:41:08.926Z,24.73
2017-11-07T16:43:36.762Z,22.20
2017-11-07T16:46:04.780Z,23.83
2017-11-07T16:48:32.275Z,22.60
2017-11-07T16:51:00.980Z,24.30
2017-11-07T16:53:28.473Z,24.73
2017-11-07T16:55:56.024Z,23.43
2017-11-07T16:58:23.538Z,23.83
2017-11-07T17:00:51.087Z,23.43
2017-11-07T17:03:18.617Z,22.40
2017-11-07T17:05:46.217Z,23.20
2017-11-07T17:08:14.150Z,23.43
2017-11-07T17:10:41.668Z,22.97
2017-11-07T17:13:09.265Z,23.30
2017-11-07T17:15:36.835Z,20.93
2017-11-07T17:18:04.325Z,23.27
2017-11-07T17:20:32.363Z,27.20
2017-11-07T17:22:59.847Z,24.30
2017-11-07T17:25:27.332Z,24.10
2017-11-07T17:27:55.665Z,23.63
2017-11-07T17:30:23.158Z,24.20
2017-11-07T17:32:50.673Z,24.50
2017-11-07T17:35:18.322Z,23.77
2017-11-07T17:37:45.841Z,23.47
2017-11-07T17:40:13.436Z,24.83
2017-11-07T17:42:41.146Z,28.07
2017-11-07T17:45:08.633Z,25.77
2017-11-07T17:47:36.224Z,24.27
2017-11-07T17:50:03.757Z,24.00
2017-11-07T17:52:31.540Z,25.10
2017-11-07T17:54:59.064Z,24.07
2017-11-07T17:57:26.529Z,24.03
2017-11-07T17:59:54.030Z,26.80
2017-11-07T18:02:21.613Z,25.17
2017-11-07T18:04:49.117Z,24.63
2017-11-07T18:07:16.681Z,24.50
2017-11-07T18:09:44.228Z,24.60
2017-11-07T18:12:11.761Z,22.30
2017-11-07T18:14:39.442Z,23.37
2017-11-07T18:17:07.014Z,22.33
2017-11-07T18:19:34.554Z,24.63
2017-11-07T18:22:02.070Z,24.83
2017-11-07T18:24:29.773Z,23.40
2017-11-07T18:26:57.352Z,23.03
2017-11-07T18:29:24.809Z,23.97
2017-11-07T18:32:01.889Z,23.13
2017-11-07T18:34:29.393Z,23.53
2017-11-07T18:36:56.958Z,25.30
2017-11-07T18:39:24.481Z,24.03
2017-11-07T18:41:52.029Z,24.27
2017-11-07T18:44:19.576Z,23.97
2017-11-07T18:46:47.123Z,24.43
2017-11-07T18:49:14.935Z,24.13
2017-11-07T18:51:42.445Z,22.63
2017-11-07T18:54:10.027Z,24.37
2017-11-07T18:56:37.564Z,25.20
2017-11-07T18:59:05.084Z,24.37
2017-11-07T19:01:32.603Z,25.07
2017-11-07T19:04:00.167Z,23.90
2017-11-07T19:06:27.659Z,25.00
2017-11-07T19:08:55.184Z,25.07
2017-11-07T19:11:22.773Z,24.83
2017-11-07T19:13:50.374Z,24.77
2017-11-07T19:16:18.000Z,24.53
2017-11-07T19:18:45.524Z,22.87
2017-11-07T19:21:13.120Z,24.30
2017-11-07T19:23:40.626Z,25.73
2017-11-07T19:26:08.346Z,25.70
2017-11-07T19:28:35.885Z,25.37
2017-11-07T19:31:03.412Z,24.97
2017-11-07T19:33:30.917Z,24.47
2017-11-07T19:35:58.497Z,24.37
2017-11-07T19:38:26.048Z,23.97
2017-11-07T19:40:53.564Z,25.50
2017-11-07T19:43:21.144Z,24.47
2017-11-07T19:45:48.727Z,24.47
2017-11-07T19:48:16.259Z,23.73
2017-11-07T19:50:43.829Z,23.73
2017-11-07T19:53:11.342Z,23.77
2017-11-07T19:55:38.858Z,22.83
2017-11-07T19:58:06.383Z,23.50
2017-11-07T20:00:33.975Z,23.90
2017-11-07T20:03:01.576Z,23.57
2017-11-07T20:05:29.135Z,24.13
2017-11-07T20:07:56.599Z,22.37
2017-11-07T20:10:24.127Z,26.50
2017-11-07T20:12:51.664Z,24.93
2017-11-07T20:15:19.238Z,24.97
2017-11-07T20:17:46.733Z,25.53
2017-11-07T20:20:14.255Z,24.50
2017-11-07T20:22:41.791Z,23.53
2017-11-07T20:25:09.312Z,25.27
2017-11-07T20:27:36.798Z,26.17
2017-11-07T20:30:04.360Z,29.07
2017-11-07T20:32:31.946Z,26.77
2017-11-07T20:34:59.481Z,25.50
2017-11-07T20:37:26.989Z,25.27
2017-11-07T20:39:56.585Z,24.00
2017-11-07T20:42:25.367Z,25.33
2017-11-07T20:44:52.919Z,27.37
2017-11-07T20:47:20.463Z,26.07
2017-11-07T20:49:48.004Z,26.30
2017-11-07T20:52:16.528Z,23.87
2017-11-07T20:54:44.042Z,26.37
2017-11-07T20:57:11.588Z,26.70
2017-11-07T20:59:39.157Z,25.70
2017-11-07T21:02:06.659Z,26.77
2017-11-07T21:04:34.364Z,24.90
2017-11-07T21:07:01.920Z,25.13
2017-11-07T21:09:29.466Z,25.17
2017-11-07T21:11:56.943Z,25.80
2017-11-07T21:14:24.425Z,27.53
2017-11-07T21:16:51.954Z,26.23
2017-11-07T21:19:19.431Z,27.13
2017-11-07T21:21:53.357Z,28.33
2017-11-07T21:24:20.895Z,27.80
2017-11-07T21:26:48.388Z,27.60
2017-11-07T21:29:15.876Z,26.37
2017-11-07T21:31:43.332Z,26.77
2017-11-07T21:34:11.671Z,28.27
2017-11-07T21:36:39.228Z,29.80
2017-11-07T21:39:06.706Z,29.97
2017-11-07T21:41:34.183Z,30.13
2017-11-07T21:44:01.670Z,30.07
2017-11-07T21:46:29.135Z,30.73
2017-11-07T21:48:56.623Z,30.80
2017-11-07T21:51:24.096Z,30.80
2017-11-07T21:53:51.559Z,29.97
2017-11-07T21:56:19.085Z,31.93
2017-11-07T21:58:46.593Z,30.50
2017-11-07T22:01:14.185Z,29.40
2017-11-07T22:03:41.693Z,31.13
2017-11-07T22:06:09.161Z,32.87
2017-11-07T22:08:36.640Z,31.47
2017-11-07T22:11:04.202Z,32.53
2017-11-07T22:13:31.686Z,31.97
2017-11-07T22:15:59.272Z,33.60
2017-11-07T22:18:27.022Z,32.60
2017-11-07T22:20:54.816Z,31.00
2017-11-07T22:23:26.910Z,33.07
2017-11-07T22:28:26.181Z,31.47
2017-11-07T22:30:54.886Z,31.40
2017-11-07T22:33:22.651Z,31.50
2017-11-07T22:35:50.390Z,33.17
2017-11-07T22:38:18.051Z,32.63
2017-11-07T22:40:45.531Z,33.07
2017-11-07T22:43:13.010Z,34.00
2017-11-07T22:45:40.498Z,31.23
2017-11-07T22:48:08.010Z,32.90
2017-11-07T22:50:35.566Z,33.70
2017-11-07T22:55:56.368Z,33.73
2017-11-07T22:58:23.966Z,31.70
2017-11-07T23:00:51.550Z,30.83
2017-11-07T23:03:19.342Z,31.97
2017-11-07T23:05:46.860Z,34.80
2017-11-07T23:08:14.372Z,32.57
2017-11-07T23:10:41.923Z,34.53
2017-11-07T23:13:13.469Z,34.40
2017-11-07T23:15:41.470Z,32.30
2017-11-07T23:18:08.917Z,34.43
2017-11-07T23:20:37.264Z,34.63
2017-11-07T23:23:19.342Z,35.07
2017-11-07T23:25:46.834Z,35.53
2017-11-07T23:28:14.419Z,32.73
2017-11-07T23:30:41.923Z,33.67
2017-11-07T23:33:09.858Z,33.60
2017-11-07T23:35:37.334Z,33.07
2017-11-07T23:38:05.036Z,32.47
2017-11-07T23:40:32.511Z,31.73
2017-11-07T23:43:00.252Z,33.60
2017-11-07T23:45:27.774Z,34.53
2017-11-07T23:47:55.259Z,34.23
2017-11-07T23:50:25.035Z,34.30
2017-11-07T23:52:53.489Z,32.97
2017-11-07T23:55:21.235Z,32.87
2017-11-07T23:57:48.776Z,34.83
